sensor_id;sensor_type;location;lat;lon;timestamp;temperature;humidity
80937;DHT22;70395;51.382;7.074;2023-08-07T00:01:54;15.50;75.30
80937;DHT22;70395;51.382;7.074;2023-08-07T00:04:20;15.40;75.30
80937;DHT22;70395;51.382;7.074;2023-08-07T00:06:45;15.40;75.40
80937;DHT22;70395;51.382;7.074;2023-08-07T00:09:11;15.40;75.50
80937;DHT22;70395;51.382;7.074;2023-08-07T00:11:37;15.40;75.30
80937;DHT22;70395;51.382;7.074;2023-08-07T00:14:03;15.40;75.50
80937;DHT22;70395;51.382;7.074;2023-08-07T00:16:29;15.40;75.50
80937;DHT22;70395;51.382;7.074;2023-08-07T00:18:55;15.40;75.60
80937;DHT22;70395;51.382;7.074;2023-08-07T00:21:22;15.40;75.60
80937;DHT22;70395;51.382;7.074;2023-08-07T00:23:48;15.40;75.70
80937;DHT22;70395;51.382;7.074;2023-08-07T00:26:15;15.40;75.90
80937;DHT22;70395;51.382;7.074;2023-08-07T00:28:41;15.40;75.90
80937;DHT22;70395;51.382;7.074;2023-08-07T00:31:07;15.40;75.80
80937;DHT22;70395;51.382;7.074;2023-08-07T00:33:33;15.40;76.60
80937;DHT22;70395;51.382;7.074;2023-08-07T00:35:58;15.40;75.90
80937;DHT22;70395;51.382;7.074;2023-08-07T00:38:24;15.40;75.80
80937;DHT22;70395;51.382;7.074;2023-08-07T00:40:50;15.40;75.80
80937;DHT22;70395;51.382;7.074;2023-08-07T00:43:16;15.40;75.60
80937;DHT22;70395;51.382;7.074;2023-08-07T00:45:43;15.40;75.70
80937;DHT22;70395;51.382;7.074;2023-08-07T00:48:12;15.40;75.70
80937;DHT22;70395;51.382;7.074;2023-08-07T00:50:40;15.40;75.70
80937;DHT22;70395;51.382;7.074;2023-08-07T00:53:07;15.40;75.70
80937;DHT22;70395;51.382;7.074;2023-08-07T00:55:35;15.40;75.60
80937;DHT22;70395;51.382;7.074;2023-08-07T00:58:01;15.40;75.70
80937;DHT22;70395;51.382;7.074;2023-08-07T01:00:30;15.40;75.70
80937;DHT22;70395;51.382;7.074;2023-08-07T01:02:56;15.40;75.80
80937;DHT22;70395;51.382;7.074;2023-08-07T01:05:24;15.40;75.70
80937;DHT22;70395;51.382;7.074;2023-08-07T01:07:53;15.40;75.60
80937;DHT22;70395;51.382;7.074;2023-08-07T01:10:35;15.40;75.50
80937;DHT22;70395;51.382;7.074;2023-08-07T01:13:28;15.40;75.70
80937;DHT22;70395;51.382;7.074;2023-08-07T01:16:03;15.40;75.70
80937;DHT22;70395;51.382;7.074;2023-08-07T01:18:36;15.40;75.70
80937;DHT22;70395;51.382;7.074;2023-08-07T01:21:04;15.40;75.70
80937;DHT22;70395;51.382;7.074;2023-08-07T01:23:30;15.40;75.70
80937;DHT22;70395;51.382;7.074;2023-08-07T01:25:55;15.40;75.60
80937;DHT22;70395;51.382;7.074;2023-08-07T01:28:37;15.40;75.70
80937;DHT22;70395;51.382;7.074;2023-08-07T01:31:10;15.40;75.90
80937;DHT22;70395;51.382;7.074;2023-08-07T01:36:29;15.30;75.70
80937;DHT22;70395;51.382;7.074;2023-08-07T01:38:57;15.40;75.80
80937;DHT22;70395;51.382;7.074;2023-08-07T01:41:26;15.40;75.90
80937;DHT22;70395;51.382;7.074;2023-08-07T01:43:53;15.30;75.70
80937;DHT22;70395;51.382;7.074;2023-08-07T01:46:20;15.30;75.70
80937;DHT22;70395;51.382;7.074;2023-08-07T01:48:46;15.30;75.70
80937;DHT22;70395;51.382;7.074;2023-08-07T01:51:11;15.30;75.80
80937;DHT22;70395;51.382;7.074;2023-08-07T01:53:37;15.30;75.70
80937;DHT22;70395;51.382;7.074;2023-08-07T01:56:03;15.30;75.80
80937;DHT22;70395;51.382;7.074;2023-08-07T01:58:29;15.30;75.80
80937;DHT22;70395;51.382;7.074;2023-08-07T02:00:55;15.30;75.70
80937;DHT22;70395;51.382;7.074;2023-08-07T02:03:21;15.30;75.90
80937;DHT22;70395;51.382;7.074;2023-08-07T02:05:46;15.30;75.80
80937;DHT22;70395;51.382;7.074;2023-08-07T02:08:12;15.30;75.80
80937;DHT22;70395;51.382;7.074;2023-08-07T02:10:38;15.30;75.80
80937;DHT22;70395;51.382;7.074;2023-08-07T02:13:04;15.30;75.70
80937;DHT22;70395;51.382;7.074;2023-08-07T02:15:30;15.30;75.70
80937;DHT22;70395;51.382;7.074;2023-08-07T02:17:58;15.30;75.80
80937;DHT22;70395;51.382;7.074;2023-08-07T02:20:23;15.30;75.60
80937;DHT22;70395;51.382;7.074;2023-08-07T02:22:49;15.30;75.70
80937;DHT22;70395;51.382;7.074;2023-08-07T02:25:15;15.30;75.70
80937;DHT22;70395;51.382;7.074;2023-08-07T02:27:41;15.30;75.80
80937;DHT22;70395;51.382;7.074;2023-08-07T02:30:07;15.30;75.90
80937;DHT22;70395;51.382;7.074;2023-08-07T02:32:33;15.30;75.90
80937;DHT22;70395;51.382;7.074;2023-08-07T02:34:59;15.30;75.90
80937;DHT22;70395;51.382;7.074;2023-08-07T02:37:25;15.30;75.80
80937;DHT22;70395;51.382;7.074;2023-08-07T02:39:51;15.30;75.80
80937;DHT22;70395;51.382;7.074;2023-08-07T02:42:18;15.30;75.80
80937;DHT22;70395;51.382;7.074;2023-08-07T02:44:44;15.30;75.80
80937;DHT22;70395;51.382;7.074;2023-08-07T02:47:10;15.30;75.80
80937;DHT22;70395;51.382;7.074;2023-08-07T02:49:36;15.30;75.80
80937;DHT22;70395;51.382;7.074;2023-08-07T02:52:02;15.30;75.70
80937;DHT22;70395;51.382;7.074;2023-08-07T02:54:28;15.30;75.70
80937;DHT22;70395;51.382;7.074;2023-08-07T02:56:53;15.30;75.80
80937;DHT22;70395;51.382;7.074;2023-08-07T02:59:19;15.30;75.90
80937;DHT22;70395;51.382;7.074;2023-08-07T03:01:45;15.30;75.80
80937;DHT22;70395;51.382;7.074;2023-08-07T03:04:11;15.40;75.80
80937;DHT22;70395;51.382;7.074;2023-08-07T03:06:37;15.30;75.80
80937;DHT22;70395;51.382;7.074;2023-08-07T03:09:02;15.30;75.80
80937;DHT22;70395;51.382;7.074;2023-08-07T03:11:29;15.40;75.90
80937;DHT22;70395;51.382;7.074;2023-08-07T03:13:55;15.30;75.90
80937;DHT22;70395;51.382;7.074;2023-08-07T03:16:20;15.30;75.80
80937;DHT22;70395;51.382;7.074;2023-08-07T03:18:46;15.30;75.70
80937;DHT22;70395;51.382;7.074;2023-08-07T03:21:12;15.30;75.60
80937;DHT22;70395;51.382;7.074;2023-08-07T03:23:38;15.30;75.40
80937;DHT22;70395;51.382;7.074;2023-08-07T03:26:08;15.30;75.40
80937;DHT22;70395;51.382;7.074;2023-08-07T03:28:36;15.30;75.20
80937;DHT22;70395;51.382;7.074;2023-08-07T03:31:02;15.30;75.30
80937;DHT22;70395;51.382;7.074;2023-08-07T03:33:28;15.30;75.30
80937;DHT22;70395;51.382;7.074;2023-08-07T03:35:54;15.30;75.30
80937;DHT22;70395;51.382;7.074;2023-08-07T03:38:20;15.30;75.20
80937;DHT22;70395;51.382;7.074;2023-08-07T03:40:46;15.30;75.40
80937;DHT22;70395;51.382;7.074;2023-08-07T03:43:12;15.30;75.40
80937;DHT22;70395;51.382;7.074;2023-08-07T03:45:39;15.30;75.40
80937;DHT22;70395;51.382;7.074;2023-08-07T03:48:05;15.30;75.40
80937;DHT22;70395;51.382;7.074;2023-08-07T03:50:31;15.30;75.40
80937;DHT22;70395;51.382;7.074;2023-08-07T03:53:00;15.20;75.30
80937;DHT22;70395;51.382;7.074;2023-08-07T03:55:26;15.20;75.30
80937;DHT22;70395;51.382;7.074;2023-08-07T03:57:52;15.20;75.20
80937;DHT22;70395;51.382;7.074;2023-08-07T04:00:18;15.20;75.10
80937;DHT22;70395;51.382;7.074;2023-08-07T04:02:44;15.30;75.30
80937;DHT22;70395;51.382;7.074;2023-08-07T04:05:10;15.30;75.40
80937;DHT22;70395;51.382;7.074;2023-08-07T04:07:36;15.20;75.30
80937;DHT22;70395;51.382;7.074;2023-08-07T04:10:02;15.30;75.10
80937;DHT22;70395;51.382;7.074;2023-08-07T04:12:28;15.30;75.10
80937;DHT22;70395;51.382;7.074;2023-08-07T04:14:54;15.30;74.90
80937;DHT22;70395;51.382;7.074;2023-08-07T04:17:19;15.30;75.00
80937;DHT22;70395;51.382;7.074;2023-08-07T04:19:46;15.30;75.00
80937;DHT22;70395;51.382;7.074;2023-08-07T04:22:11;15.30;75.10
80937;DHT22;70395;51.382;7.074;2023-08-07T04:24:37;15.30;75.10
80937;DHT22;70395;51.382;7.074;2023-08-07T04:27:03;15.30;75.20
80937;DHT22;70395;51.382;7.074;2023-08-07T04:29:29;15.30;75.10
80937;DHT22;70395;51.382;7.074;2023-08-07T04:31:55;15.30;75.10
80937;DHT22;70395;51.382;7.074;2023-08-07T04:34:20;15.30;75.00
80937;DHT22;70395;51.382;7.074;2023-08-07T04:36:46;15.30;75.00
80937;DHT22;70395;51.382;7.074;2023-08-07T04:39:12;15.30;75.00
80937;DHT22;70395;51.382;7.074;2023-08-07T04:41:39;15.30;75.00
80937;DHT22;70395;51.382;7.074;2023-08-07T04:44:04;15.30;75.00
80937;DHT22;70395;51.382;7.074;2023-08-07T04:46:30;15.30;74.90
80937;DHT22;70395;51.382;7.074;2023-08-07T04:48:56;15.30;75.00
80937;DHT22;70395;51.382;7.074;2023-08-07T04:51:22;15.30;75.00
80937;DHT22;70395;51.382;7.074;2023-08-07T04:53:48;15.30;75.10
80937;DHT22;70395;51.382;7.074;2023-08-07T04:56:16;15.30;75.00
80937;DHT22;70395;51.382;7.074;2023-08-07T04:58:42;15.30;74.90
80937;DHT22;70395;51.382;7.074;2023-08-07T05:01:08;15.30;74.80
80937;DHT22;70395;51.382;7.074;2023-08-07T05:03:34;15.30;74.70
80937;DHT22;70395;51.382;7.074;2023-08-07T05:06:01;15.30;74.60
80937;DHT22;70395;51.382;7.074;2023-08-07T05:08:27;15.40;74.70
80937;DHT22;70395;51.382;7.074;2023-08-07T05:10:53;15.40;74.80
80937;DHT22;70395;51.382;7.074;2023-08-07T05:13:19;15.40;74.80
80937;DHT22;70395;51.382;7.074;2023-08-07T05:15:47;15.40;74.20
80937;DHT22;70395;51.382;7.074;2023-08-07T05:18:15;15.40;74.40
80937;DHT22;70395;51.382;7.074;2023-08-07T05:20:42;15.40;74.50
80937;DHT22;70395;51.382;7.074;2023-08-07T05:23:08;15.40;74.50
80937;DHT22;70395;51.382;7.074;2023-08-07T05:25:35;15.40;74.50
80937;DHT22;70395;51.382;7.074;2023-08-07T05:28:02;15.40;74.40
80937;DHT22;70395;51.382;7.074;2023-08-07T05:30:28;15.40;74.40
80937;DHT22;70395;51.382;7.074;2023-08-07T05:32:54;15.40;74.30
80937;DHT22;70395;51.382;7.074;2023-08-07T05:35:20;15.40;74.40
80937;DHT22;70395;51.382;7.074;2023-08-07T05:37:46;15.40;74.40
80937;DHT22;70395;51.382;7.074;2023-08-07T05:40:11;15.40;74.50
80937;DHT22;70395;51.382;7.074;2023-08-07T05:42:37;15.40;74.50
80937;DHT22;70395;51.382;7.074;2023-08-07T05:45:04;15.40;74.20
80937;DHT22;70395;51.382;7.074;2023-08-07T05:47:31;15.40;74.40
80937;DHT22;70395;51.382;7.074;2023-08-07T05:49:57;15.40;74.50
80937;DHT22;70395;51.382;7.074;2023-08-07T05:52:23;15.40;74.40
80937;DHT22;70395;51.382;7.074;2023-08-07T05:54:49;15.40;74.40
80937;DHT22;70395;51.382;7.074;2023-08-07T05:57:15;15.40;75.20
80937;DHT22;70395;51.382;7.074;2023-08-07T05:59:41;15.40;74.50
80937;DHT22;70395;51.382;7.074;2023-08-07T06:02:06;15.40;74.50
80937;DHT22;70395;51.382;7.074;2023-08-07T06:04:32;15.30;74.50
80937;DHT22;70395;51.382;7.074;2023-08-07T06:06:58;15.30;74.60
80937;DHT22;70395;51.382;7.074;2023-08-07T06:09:24;15.30;74.60
80937;DHT22;70395;51.382;7.074;2023-08-07T06:11:50;15.30;74.60
80937;DHT22;70395;51.382;7.074;2023-08-07T06:14:16;15.30;74.90
80937;DHT22;70395;51.382;7.074;2023-08-07T06:16:41;15.30;74.90
80937;DHT22;70395;51.382;7.074;2023-08-07T06:19:07;15.30;75.00
80937;DHT22;70395;51.382;7.074;2023-08-07T06:21:34;15.30;75.10
80937;DHT22;70395;51.382;7.074;2023-08-07T06:23:59;15.30;75.20
80937;DHT22;70395;51.382;7.074;2023-08-07T06:26:25;15.30;75.20
80937;DHT22;70395;51.382;7.074;2023-08-07T06:28:51;15.30;75.10
80937;DHT22;70395;51.382;7.074;2023-08-07T06:31:18;15.30;75.30
80937;DHT22;70395;51.382;7.074;2023-08-07T06:33:43;15.30;75.30
80937;DHT22;70395;51.382;7.074;2023-08-07T06:36:09;15.30;75.40
80937;DHT22;70395;51.382;7.074;2023-08-07T06:38:35;15.30;75.70
80937;DHT22;70395;51.382;7.074;2023-08-07T06:41:01;15.30;75.70
80937;DHT22;70395;51.382;7.074;2023-08-07T06:43:27;15.40;75.70
80937;DHT22;70395;51.382;7.074;2023-08-07T06:45:55;15.40;75.60
80937;DHT22;70395;51.382;7.074;2023-08-07T06:48:22;15.40;75.60
80937;DHT22;70395;51.382;7.074;2023-08-07T06:50:49;15.50;75.80
80937;DHT22;70395;51.382;7.074;2023-08-07T06:53:16;15.50;75.70
80937;DHT22;70395;51.382;7.074;2023-08-07T06:55:42;15.50;75.70
80937;DHT22;70395;51.382;7.074;2023-08-07T06:58:09;15.50;75.70
80937;DHT22;70395;51.382;7.074;2023-08-07T07:00:36;15.60;75.60
80937;DHT22;70395;51.382;7.074;2023-08-07T07:03:03;15.60;75.50
80937;DHT22;70395;51.382;7.074;2023-08-07T07:05:30;15.60;75.60
80937;DHT22;70395;51.382;7.074;2023-08-07T07:07:57;15.60;75.40
80937;DHT22;70395;51.382;7.074;2023-08-07T07:10:23;15.70;75.50
80937;DHT22;70395;51.382;7.074;2023-08-07T07:12:49;15.70;76.10
80937;DHT22;70395;51.382;7.074;2023-08-07T07:15:15;15.70;75.50
80937;DHT22;70395;51.382;7.074;2023-08-07T07:17:41;15.70;75.50
80937;DHT22;70395;51.382;7.074;2023-08-07T07:20:07;15.70;75.30
80937;DHT22;70395;51.382;7.074;2023-08-07T07:22:35;15.70;75.40
80937;DHT22;70395;51.382;7.074;2023-08-07T07:25:01;15.80;75.40
80937;DHT22;70395;51.382;7.074;2023-08-07T07:27:27;15.80;75.40
80937;DHT22;70395;51.382;7.074;2023-08-07T07:29:53;15.80;75.50
80937;DHT22;70395;51.382;7.074;2023-08-07T07:32:18;15.80;75.40
80937;DHT22;70395;51.382;7.074;2023-08-07T07:34:44;15.80;75.50
80937;DHT22;70395;51.382;7.074;2023-08-07T07:37:10;15.90;75.60
80937;DHT22;70395;51.382;7.074;2023-08-07T07:39:36;15.90;75.50
80937;DHT22;70395;51.382;7.074;2023-08-07T07:42:02;15.90;75.30
80937;DHT22;70395;51.382;7.074;2023-08-07T07:44:30;16.00;75.40
80937;DHT22;70395;51.382;7.074;2023-08-07T07:46:56;16.00;75.10
80937;DHT22;70395;51.382;7.074;2023-08-07T07:49:22;16.00;75.30
80937;DHT22;70395;51.382;7.074;2023-08-07T07:51:48;16.00;75.30
80937;DHT22;70395;51.382;7.074;2023-08-07T07:54:14;16.10;75.20
80937;DHT22;70395;51.382;7.074;2023-08-07T07:56:41;16.10;75.20
80937;DHT22;70395;51.382;7.074;2023-08-07T07:59:11;16.10;75.10
80937;DHT22;70395;51.382;7.074;2023-08-07T08:01:37;16.10;75.00
80937;DHT22;70395;51.382;7.074;2023-08-07T08:04:03;16.20;75.00
80937;DHT22;70395;51.382;7.074;2023-08-07T08:06:29;16.20;75.10
80937;DHT22;70395;51.382;7.074;2023-08-07T08:08:56;16.20;75.10
80937;DHT22;70395;51.382;7.074;2023-08-07T08:11:22;16.20;75.00
80937;DHT22;70395;51.382;7.074;2023-08-07T08:13:48;16.20;75.10
80937;DHT22;70395;51.382;7.074;2023-08-07T08:16:14;16.20;74.70
80937;DHT22;70395;51.382;7.074;2023-08-07T08:18:40;16.20;74.80
80937;DHT22;70395;51.382;7.074;2023-08-07T08:21:06;16.20;74.70
80937;DHT22;70395;51.382;7.074;2023-08-07T08:23:32;16.20;74.70
80937;DHT22;70395;51.382;7.074;2023-08-07T08:25:58;16.20;75.00
80937;DHT22;70395;51.382;7.074;2023-08-07T08:28:23;16.20;75.00
80937;DHT22;70395;51.382;7.074;2023-08-07T08:30:49;16.20;75.20
80937;DHT22;70395;51.382;7.074;2023-08-07T08:33:15;16.20;75.30
80937;DHT22;70395;51.382;7.074;2023-08-07T08:35:42;16.20;75.50
80937;DHT22;70395;51.382;7.074;2023-08-07T08:38:09;16.30;75.50
80937;DHT22;70395;51.382;7.074;2023-08-07T08:40:35;16.30;75.30
80937;DHT22;70395;51.382;7.074;2023-08-07T08:43:05;16.40;75.30
80937;DHT22;70395;51.382;7.074;2023-08-07T08:45:31;16.50;75.20
80937;DHT22;70395;51.382;7.074;2023-08-07T08:48:03;16.50;75.30
80937;DHT22;70395;51.382;7.074;2023-08-07T08:50:32;16.60;75.00
80937;DHT22;70395;51.382;7.074;2023-08-07T08:52:59;16.70;74.70
80937;DHT22;70395;51.382;7.074;2023-08-07T08:55:28;16.80;74.80
80937;DHT22;70395;51.382;7.074;2023-08-07T08:57:57;16.90;75.10
80937;DHT22;70395;51.382;7.074;2023-08-07T09:00:26;17.00;74.70
80937;DHT22;70395;51.382;7.074;2023-08-07T09:02:54;17.10;74.20
80937;DHT22;70395;51.382;7.074;2023-08-07T09:05:22;17.20;74.20
80937;DHT22;70395;51.382;7.074;2023-08-07T09:07:48;17.20;73.80
80937;DHT22;70395;51.382;7.074;2023-08-07T09:10:15;17.30;74.00
80937;DHT22;70395;51.382;7.074;2023-08-07T09:12:50;17.30;73.70
80937;DHT22;70395;51.382;7.074;2023-08-07T09:15:23;17.40;73.50
80937;DHT22;70395;51.382;7.074;2023-08-07T09:17:51;17.50;73.20
80937;DHT22;70395;51.382;7.074;2023-08-07T09:20:20;17.50;72.90
80937;DHT22;70395;51.382;7.074;2023-08-07T09:22:46;17.60;72.30
80937;DHT22;70395;51.382;7.074;2023-08-07T09:25:12;17.70;72.40
80937;DHT22;70395;51.382;7.074;2023-08-07T09:27:39;17.70;72.50
80937;DHT22;70395;51.382;7.074;2023-08-07T09:30:08;17.80;72.80
80937;DHT22;70395;51.382;7.074;2023-08-07T09:32:35;17.90;72.50
80937;DHT22;70395;51.382;7.074;2023-08-07T09:35:06;18.00;72.70
80937;DHT22;70395;51.382;7.074;2023-08-07T09:37:36;18.10;72.30
80937;DHT22;70395;51.382;7.074;2023-08-07T09:40:02;18.30;72.70
80937;DHT22;70395;51.382;7.074;2023-08-07T09:42:31;18.60;73.30
80937;DHT22;70395;51.382;7.074;2023-08-07T09:45:00;18.70;71.10
80937;DHT22;70395;51.382;7.074;2023-08-07T09:47:26;18.90;70.40
80937;DHT22;70395;51.382;7.074;2023-08-07T09:49:54;19.00;70.40
80937;DHT22;70395;51.382;7.074;2023-08-07T09:52:21;19.00;69.20
80937;DHT22;70395;51.382;7.074;2023-08-07T09:54:51;19.00;69.30
80937;DHT22;70395;51.382;7.074;2023-08-07T09:57:20;19.00;69.30
80937;DHT22;70395;51.382;7.074;2023-08-07T09:59:49;18.90;68.10
80937;DHT22;70395;51.382;7.074;2023-08-07T10:02:16;18.90;68.60
80937;DHT22;70395;51.382;7.074;2023-08-07T10:04:42;18.80;69.00
80937;DHT22;70395;51.382;7.074;2023-08-07T10:07:09;18.90;70.10
80937;DHT22;70395;51.382;7.074;2023-08-07T10:09:38;18.90;69.20
80937;DHT22;70395;51.382;7.074;2023-08-07T10:12:05;19.00;68.30
80937;DHT22;70395;51.382;7.074;2023-08-07T10:14:31;19.00;68.70
80937;DHT22;70395;51.382;7.074;2023-08-07T10:16:57;19.10;69.40
80937;DHT22;70395;51.382;7.074;2023-08-07T10:19:23;19.10;68.50
80937;DHT22;70395;51.382;7.074;2023-08-07T10:21:50;19.20;69.20
80937;DHT22;70395;51.382;7.074;2023-08-07T10:24:16;19.30;68.70
80937;DHT22;70395;51.382;7.074;2023-08-07T10:26:44;19.50;67.80
80937;DHT22;70395;51.382;7.074;2023-08-07T10:29:14;19.60;67.80
80937;DHT22;70395;51.382;7.074;2023-08-07T10:31:44;19.60;66.80
80937;DHT22;70395;51.382;7.074;2023-08-07T10:34:12;19.70;66.90
80937;DHT22;70395;51.382;7.074;2023-08-07T10:36:40;19.80;66.10
80937;DHT22;70395;51.382;7.074;2023-08-07T10:39:13;19.80;66.50
80937;DHT22;70395;51.382;7.074;2023-08-07T10:41:54;19.90;66.10
80937;DHT22;70395;51.382;7.074;2023-08-07T10:44:25;19.90;65.00
80937;DHT22;70395;51.382;7.074;2023-08-07T10:46:56;20.00;65.70
80937;DHT22;70395;51.382;7.074;2023-08-07T10:49:36;20.00;64.90
80937;DHT22;70395;51.382;7.074;2023-08-07T10:52:13;20.00;64.90
80937;DHT22;70395;51.382;7.074;2023-08-07T10:54:50;20.00;64.80
80937;DHT22;70395;51.382;7.074;2023-08-07T10:57:17;20.00;65.70
80937;DHT22;70395;51.382;7.074;2023-08-07T10:59:50;20.00;64.80
80937;DHT22;70395;51.382;7.074;2023-08-07T11:02:28;20.00;64.80
80937;DHT22;70395;51.382;7.074;2023-08-07T11:04:55;19.90;64.80
80937;DHT22;70395;51.382;7.074;2023-08-07T11:07:26;19.80;65.50
80937;DHT22;70395;51.382;7.074;2023-08-07T11:09:56;19.70;65.70
80937;DHT22;70395;51.382;7.074;2023-08-07T11:12:27;19.60;65.90
80937;DHT22;70395;51.382;7.074;2023-08-07T11:14:55;19.40;66.30
80937;DHT22;70395;51.382;7.074;2023-08-07T11:17:28;19.30;66.40
80937;DHT22;70395;51.382;7.074;2023-08-07T11:19:55;19.10;66.90
80937;DHT22;70395;51.382;7.074;2023-08-07T11:22:22;19.00;67.40
80937;DHT22;70395;51.382;7.074;2023-08-07T11:24:48;18.90;67.70
80937;DHT22;70395;51.382;7.074;2023-08-07T11:27:15;18.90;68.90
80937;DHT22;70395;51.382;7.074;2023-08-07T11:29:41;19.10;70.10
80937;DHT22;70395;51.382;7.074;2023-08-07T11:32:09;19.30;70.60
80937;DHT22;70395;51.382;7.074;2023-08-07T11:34:35;19.70;70.50
80937;DHT22;70395;51.382;7.074;2023-08-07T11:37:01;20.30;71.40
80937;DHT22;70395;51.382;7.074;2023-08-07T11:39:27;21.00;71.00
80937;DHT22;70395;51.382;7.074;2023-08-07T11:41:53;21.70;67.90
80937;DHT22;70395;51.382;7.074;2023-08-07T11:44:19;22.40;67.10
80937;DHT22;70395;51.382;7.074;2023-08-07T11:46:45;23.00;64.60
80937;DHT22;70395;51.382;7.074;2023-08-07T11:49:12;23.50;61.60
80937;DHT22;70395;51.382;7.074;2023-08-07T11:51:38;23.80;59.90
80937;DHT22;70395;51.382;7.074;2023-08-07T11:54:04;23.90;59.30
80937;DHT22;70395;51.382;7.074;2023-08-07T11:56:30;23.80;58.30
80937;DHT22;70395;51.382;7.074;2023-08-07T11:58:57;23.50;57.30
80937;DHT22;70395;51.382;7.074;2023-08-07T12:01:24;23.20;57.40
80937;DHT22;70395;51.382;7.074;2023-08-07T12:06:34;22.60;60.10
80937;DHT22;70395;51.382;7.074;2023-08-07T12:09:02;22.70;60.90
80937;DHT22;70395;51.382;7.074;2023-08-07T12:11:31;22.80;61.00
80937;DHT22;70395;51.382;7.074;2023-08-07T12:14:00;23.00;61.30
80937;DHT22;70395;51.382;7.074;2023-08-07T12:16:33;23.40;60.30
80937;DHT22;70395;51.382;7.074;2023-08-07T12:19:00;23.80;60.10
80937;DHT22;70395;51.382;7.074;2023-08-07T12:21:27;24.20;57.60
80937;DHT22;70395;51.382;7.074;2023-08-07T12:23:56;24.40;56.80
80937;DHT22;70395;51.382;7.074;2023-08-07T12:26:22;24.50;56.90
80937;DHT22;70395;51.382;7.074;2023-08-07T12:28:48;24.60;56.80
80937;DHT22;70395;51.382;7.074;2023-08-07T12:31:15;24.60;55.40
80937;DHT22;70395;51.382;7.074;2023-08-07T12:33:42;24.70;56.60
80937;DHT22;70395;51.382;7.074;2023-08-07T12:36:08;24.90;57.20
80937;DHT22;70395;51.382;7.074;2023-08-07T12:38:35;25.10;54.90
80937;DHT22;70395;51.382;7.074;2023-08-07T12:41:02;25.40;55.10
80937;DHT22;70395;51.382;7.074;2023-08-07T12:43:28;25.60;54.30
80937;DHT22;70395;51.382;7.074;2023-08-07T12:45:54;25.90;52.80
80937;DHT22;70395;51.382;7.074;2023-08-07T12:48:20;26.10;52.50
80937;DHT22;70395;51.382;7.074;2023-08-07T12:50:46;26.30;50.80
80937;DHT22;70395;51.382;7.074;2023-08-07T12:53:11;26.50;51.80
80937;DHT22;70395;51.382;7.074;2023-08-07T12:55:37;26.70;50.00
80937;DHT22;70395;51.382;7.074;2023-08-07T12:58:03;26.70;51.30
80937;DHT22;70395;51.382;7.074;2023-08-07T13:00:29;26.70;50.60
80937;DHT22;70395;51.382;7.074;2023-08-07T13:02:54;26.50;48.10
80937;DHT22;70395;51.382;7.074;2023-08-07T13:05:21;26.30;48.70
80937;DHT22;70395;51.382;7.074;2023-08-07T13:07:48;26.00;48.70
80937;DHT22;70395;51.382;7.074;2023-08-07T13:10:16;25.70;49.50
80937;DHT22;70395;51.382;7.074;2023-08-07T13:12:44;25.50;49.60
80937;DHT22;70395;51.382;7.074;2023-08-07T13:15:13;25.20;48.40
80937;DHT22;70395;51.382;7.074;2023-08-07T13:17:41;24.90;47.80
80937;DHT22;70395;51.382;7.074;2023-08-07T13:20:10;24.60;49.50
80937;DHT22;70395;51.382;7.074;2023-08-07T13:22:39;24.30;48.50
80937;DHT22;70395;51.382;7.074;2023-08-07T13:25:07;24.00;49.80
80937;DHT22;70395;51.382;7.074;2023-08-07T13:27:34;23.80;51.20
80937;DHT22;70395;51.382;7.074;2023-08-07T13:30:01;24.00;48.90
80937;DHT22;70395;51.382;7.074;2023-08-07T13:32:28;24.10;50.30
80937;DHT22;70395;51.382;7.074;2023-08-07T13:34:54;24.40;50.40
80937;DHT22;70395;51.382;7.074;2023-08-07T13:37:20;24.80;49.30
80937;DHT22;70395;51.382;7.074;2023-08-07T13:39:46;25.20;47.30
80937;DHT22;70395;51.382;7.074;2023-08-07T13:42:15;25.50;46.40
80937;DHT22;70395;51.382;7.074;2023-08-07T13:44:41;25.80;47.00
80937;DHT22;70395;51.382;7.074;2023-08-07T13:47:07;26.10;47.00
80937;DHT22;70395;51.382;7.074;2023-08-07T13:49:33;26.40;46.40
80937;DHT22;70395;51.382;7.074;2023-08-07T13:51:59;26.70;45.70
80937;DHT22;70395;51.382;7.074;2023-08-07T13:54:25;27.00;45.50
80937;DHT22;70395;51.382;7.074;2023-08-07T13:56:51;27.20;43.70
80937;DHT22;70395;51.382;7.074;2023-08-07T13:59:17;27.40;43.90
80937;DHT22;70395;51.382;7.074;2023-08-07T14:01:42;27.60;44.30
80937;DHT22;70395;51.382;7.074;2023-08-07T14:04:08;27.60;44.90
80937;DHT22;70395;51.382;7.074;2023-08-07T14:06:34;27.60;42.20
80937;DHT22;70395;51.382;7.074;2023-08-07T14:09:00;27.60;42.50
80937;DHT22;70395;51.382;7.074;2023-08-07T14:11:26;27.50;41.50
80937;DHT22;70395;51.382;7.074;2023-08-07T14:13:56;27.30;40.10
80937;DHT22;70395;51.382;7.074;2023-08-07T14:16:25;27.10;40.20
80937;DHT22;70395;51.382;7.074;2023-08-07T14:18:51;26.90;41.80
80937;DHT22;70395;51.382;7.074;2023-08-07T14:21:17;26.80;41.80
80937;DHT22;70395;51.382;7.074;2023-08-07T14:23:43;26.90;42.10
80937;DHT22;70395;51.382;7.074;2023-08-07T14:26:11;27.00;42.10
80937;DHT22;70395;51.382;7.074;2023-08-07T14:28:37;27.20;42.50
80937;DHT22;70395;51.382;7.074;2023-08-07T14:31:07;27.40;42.90
80937;DHT22;70395;51.382;7.074;2023-08-07T14:33:34;27.50;41.90
80937;DHT22;70395;51.382;7.074;2023-08-07T14:36:00;27.70;40.50
80937;DHT22;70395;51.382;7.074;2023-08-07T14:38:26;27.80;40.50
80937;DHT22;70395;51.382;7.074;2023-08-07T14:40:52;27.80;38.20
80937;DHT22;70395;51.382;7.074;2023-08-07T14:43:17;27.70;38.90
80937;DHT22;70395;51.382;7.074;2023-08-07T14:45:44;27.50;38.80
80937;DHT22;70395;51.382;7.074;2023-08-07T14:48:09;27.40;38.20
80937;DHT22;70395;51.382;7.074;2023-08-07T14:50:35;27.10;38.50
80937;DHT22;70395;51.382;7.074;2023-08-07T14:53:01;26.80;38.70
80937;DHT22;70395;51.382;7.074;2023-08-07T14:55:27;26.70;38.70
80937;DHT22;70395;51.382;7.074;2023-08-07T14:57:53;26.60;39.60
80937;DHT22;70395;51.382;7.074;2023-08-07T15:00:18;26.50;39.80
80937;DHT22;70395;51.382;7.074;2023-08-07T15:02:45;26.50;39.00
80937;DHT22;70395;51.382;7.074;2023-08-07T15:05:13;26.60;38.10
80937;DHT22;70395;51.382;7.074;2023-08-07T15:07:39;26.70;37.60
80937;DHT22;70395;51.382;7.074;2023-08-07T15:10:07;26.60;38.10
80937;DHT22;70395;51.382;7.074;2023-08-07T15:12:33;26.60;38.60
80937;DHT22;70395;51.382;7.074;2023-08-07T15:14:59;26.40;38.10
80937;DHT22;70395;51.382;7.074;2023-08-07T15:17:25;26.20;37.50
80937;DHT22;70395;51.382;7.074;2023-08-07T15:19:51;25.90;37.30
80937;DHT22;70395;51.382;7.074;2023-08-07T15:22:17;25.50;37.60
80937;DHT22;70395;51.382;7.074;2023-08-07T15:24:42;25.10;38.80
80937;DHT22;70395;51.382;7.074;2023-08-07T15:27:09;24.70;39.10
80937;DHT22;70395;51.382;7.074;2023-08-07T15:29:34;24.40;39.40
80937;DHT22;70395;51.382;7.074;2023-08-07T15:32:00;24.10;40.80
80937;DHT22;70395;51.382;7.074;2023-08-07T15:34:26;23.90;41.80